Time;durP1;ratioP1;P1;durP2;ratioP2;P2;SDS_P1;SDS_P2;PMS_P1;PMS_P2;Temp;Humidity;BMP_temperature;BMP_pressure;BME280_temperature;BME280_humidity;BME280_pressure;Samples;Min_cycle;Max_cycle;Signal;HPM_P1;HPM_P2
2021/03/26 10:38:16;;;;;;;58.30;21.35;;;;;;;22.29;28.35;96458.19;5017866;27;20379;-67
2021/03/26 10:40:55;;;;;;;38.58;13.88;;;;;;;21.94;28.29;96464.84;4975685;28;20042;-69
2021/03/26 10:43:33;;;;;;;27.02;10.15;;;;;;;21.78;27.66;96462.31;5005650;28;20513;-70
2021/03/26 10:46:26;;;;;;;19.48;7.68;;;;;;;21.69;27.64;96453.16;5038735;28;20421;-67
2021/03/26 10:49:04;;;;;;;20.77;8.57;;;;;;;21.67;27.45;96449.91;5019193;28;20045;-67
2021/03/26 10:52:22;;;;;;;17.50;7.97;;;;;;;21.60;27.76;96461.13;5021849;28;20064;-65
2021/03/26 10:55:10;;;;;;;24.15;8.50;;;;;;;21.60;28.33;96457.59;5030160;28;20092;-66
2021/03/26 10:57:40;;;;;;;19.00;7.40;;;;;;;21.42;28.78;96456.44;5007873;28;20088;-67
2021/03/26 11:00:24;;;;;;;28.17;8.93;;;;;;;21.33;29.09;96449.94;5022813;28;20046;-70
2021/03/26 11:03:01;;;;;;;18.87;7.87;;;;;;;21.46;28.89;96465.66;5005515;28;20440;-66
2021/03/26 11:05:36;;;;;;;19.23;7.53;;;;;;;21.40;29.05;96453.94;5021499;28;20069;-66
2021/03/26 11:08:02;;;;;;;23.25;8.60;;;;;;;21.32;28.77;96459.22;5019654;28;20061;-65
2021/03/26 11:10:46;;;;;;;16.58;6.53;;;;;;;21.30;28.95;96448.59;5007679;28;20085;-65
2021/03/26 11:13:24;;;;;;;19.40;7.82;;;;;;;21.26;28.78;96436.66;4986295;28;20050;-64
2021/03/26 11:15:54;;;;;;;17.80;6.72;;;;;;;21.25;28.66;96437.75;5001721;28;20057;-65
2021/03/26 11:18:23;;;;;;;18.58;6.97;;;;;;;21.24;29.00;96434.19;5001820;28;20046;-65
2021/03/26 11:20:59;;;;;;;15.18;6.75;;;;;;;21.19;28.91;96428.81;5001469;28;20057;-66
2021/03/26 11:23:27;;;;;;;16.73;6.25;;;;;;;21.25;29.13;96424.13;5015074;28;20053;-68
2021/03/26 11:26:10;;;;;;;14.23;5.95;;;;;;;21.27;28.78;96413.72;5005132;28;20128;-67
2021/03/26 11:28:45;;;;;;;13.23;6.32;;;;;;;21.25;28.68;96421.41;5022429;28;20053;-65
2021/03/26 11:31:32;;;;;;;14.07;6.57;;;;;;;21.23;28.68;96413.53;5003884;28;20132;-66
2021/03/26 11:34:16;;;;;;;14.43;6.70;;;;;;;21.22;28.69;96411.06;5011014;28;20081;-67
2021/03/26 11:36:53;;;;;;;11.55;6.38;;;;;;;21.20;28.71;96413.28;5003152;28;20081;-69
2021/03/26 11:39:23;;;;;;;12.27;5.63;;;;;;;21.22;28.94;96417.31;5001570;28;20050;-67
2021/03/26 11:42:03;;;;;;;13.02;6.50;;;;;;;21.17;28.76;96420.09;5001507;28;20521;-68
2021/03/26 11:44:31;;;;;;;12.50;6.07;;;;;;;21.17;28.97;96400.25;5001358;28;20050;-69
2021/03/26 11:47:13;;;;;;;12.73;5.80;;;;;;;21.24;28.77;96398.78;5001513;28;20069;-67
2021/03/26 11:49:41;;;;;;;10.63;6.32;;;;;;;21.18;29.06;96401.84;4974367;28;20046;-66
2021/03/26 11:52:10;;;;;;;11.57;6.13;;;;;;;21.20;28.80;96391.47;4987739;28;20046;-69
2021/03/26 11:54:42;;;;;;;10.77;6.10;;;;;;;21.20;29.05;96391.47;5004837;28;20060;-67
2021/03/26 11:57:17;;;;;;;13.85;5.55;;;;;;;21.19;28.77;96381.69;5007920;28;20152;-68
2021/03/26 11:59:56;;;;;;;10.13;5.97;;;;;;;21.18;29.24;96383.59;5004472;28;20049;-67
2021/03/26 12:02:26;;;;;;;9.93;5.88;;;;;;;21.17;29.18;96379.25;5007130;28;20053;-67
2021/03/26 12:05:10;;;;;;;10.57;5.63;;;;;;;21.15;29.26;96378.72;5007541;28;20058;-67
2021/03/26 12:07:40;;;;;;;10.27;5.70;;;;;;;21.16;29.12;96393.16;5007256;28;20041;-67
2021/03/26 12:10:23;;;;;;;11.15;6.15;;;;;;;21.11;29.15;96383.13;5007212;28;20060;-67
2021/03/26 12:13:13;;;;;;;10.23;6.43;;;;;;;21.16;29.13;96379.53;4990959;28;20064;-68
2021/03/26 12:17:47;;;;;;;9.85;5.95;;;;;;;21.11;29.10;96379.59;5103168;27;20395;-66
2021/03/26 12:20:31;;;;;;;10.45;5.55;;;;;;;21.14;29.45;96381.72;5087975;28;20604;-68
2021/03/26 12:23:02;;;;;;;10.02;6.53;;;;;;;21.13;29.20;96374.69;5103245;28;20047;-67
2021/03/26 12:25:44;;;;;;;7.93;5.75;;;;;;;21.11;29.30;96372.22;5104060;28;20537;-67
2021/03/26 12:28:39;;;;;;;10.18;5.18;;;;;;;21.13;29.32;96366.50;5086488;28;20047;-67
2021/03/26 12:31:10;;;;;;;7.97;5.20;;;;;;;21.12;29.46;96373.03;5096816;28;20146;-66
2021/03/26 12:33:44;;;;;;;6.50;5.07;;;;;;;21.13;29.27;96370.03;5102954;28;20453;-66
2021/03/26 12:36:27;;;;;;;7.13;5.22;;;;;;;21.11;29.41;96360.53;5103169;28;20051;-66
2021/03/26 12:39:09;;;;;;;5.78;5.07;;;;;;;21.09;29.47;96365.44;5069911;28;20134;-67
2021/03/26 12:41:49;;;;;;;7.13;5.55;;;;;;;21.09;29.68;96363.53;5085828;28;20047;-68
2021/03/26 12:44:22;;;;;;;6.90;5.13;;;;;;;21.08;29.46;96359.16;5086106;28;20048;-66
2021/03/26 12:46:57;;;;;;;6.72;5.38;;;;;;;21.07;29.80;96352.13;5101901;28;20070;-67
2021/03/26 12:49:29;;;;;;;7.38;4.78;;;;;;;21.09;29.64;96354.56;5102775;28;20050;-66
2021/03/26 12:52:20;;;;;;;8.38;5.60;;;;;;;21.07;29.52;96349.41;5085594;28;20101;-67
2021/03/26 12:54:53;;;;;;;7.15;5.82;;;;;;;21.06;29.83;96334.13;5104885;28;20063;-67
2021/03/26 12:57:25;;;;;;;6.03;4.80;;;;;;;21.08;29.60;96337.38;5105908;28;20059;-68
2021/03/26 12:59:55;;;;;;;6.55;5.30;;;;;;;21.08;29.86;96339.31;5105982;28;20646;-67
2021/03/26 13:02:37;;;;;;;7.57;5.57;;;;;;;21.08;29.61;96320.25;5122592;28;20050;-66
2021/03/26 13:05:24;;;;;;;8.00;4.68;;;;;;;21.03;29.73;96311.03;5105782;28;20425;-66
2021/03/26 13:07:53;;;;;;;8.07;4.70;;;;;;;21.01;30.11;96313.22;5121682;28;20051;-68
2021/03/26 13:10:37;;;;;;;7.20;4.82;;;;;;;21.03;29.92;96316.47;5123413;27;20051;-68
2021/03/26 13:13:39;;;;;;;7.10;5.07;;;;;;;21.00;29.83;96311.63;5123800;27;20074;-67
2021/03/26 13:16:09;;;;;;;8.80;5.13;;;;;;;21.03;30.18;96312.94;5122560;28;20078;-66
2021/03/26 13:19:04;;;;;;;5.40;4.50;;;;;;;21.03;29.87;96310.22;5105316;28;20051;-68
2021/03/26 13:22:07;;;;;;;6.05;4.80;;;;;;;21.04;30.14;96296.31;5121613;28;20494;-67
2021/03/26 13:24:38;;;;;;;5.93;4.60;;;;;;;21.05;30.17;96305.28;5122942;28;20072;-66
2021/03/26 13:27:19;;;;;;;5.32;4.80;;;;;;;21.04;30.09;96300.94;5120155;27;20051;-68
2021/03/26 13:30:10;;;;;;;6.20;4.85;;;;;;;21.04;29.89;96306.38;5109918;28;20059;-68
2021/03/26 13:32:47;;;;;;;5.93;4.53;;;;;;;21.01;29.93;96296.09;5108243;28;20533;-68
2021/03/26 13:35:18;;;;;;;7.00;4.93;;;;;;;20.99;29.99;96293.63;5109796;28;20502;-68
2021/03/26 13:37:44;;;;;;;6.18;4.40;;;;;;;21.01;30.21;96294.16;5091818;28;20407;-68
2021/03/26 13:40:13;;;;;;;5.65;5.05;;;;;;;21.00;29.93;96276.22;5092501;28;20047;-67
2021/03/26 13:42:47;;;;;;;6.50;4.80;;;;;;;21.00;30.31;96278.13;5091870;28;20494;-64
2021/03/26 13:45:18;;;;;;;5.63;4.67;;;;;;;21.02;30.11;96278.63;5109809;27;20043;-66
2021/03/26 13:48:14;;;;;;;5.75;4.70;;;;;;;21.04;30.26;96280.00;5091817;28;20293;-69
2021/03/26 13:50:53;;;;;;;5.95;4.85;;;;;;;21.05;30.02;96272.63;5108725;28;20105;-67
2021/03/26 13:53:26;;;;;;;5.65;4.97;;;;;;;21.04;30.37;96279.16;5103434;28;20128;-65
2021/03/26 13:56:08;;;;;;;6.40;4.50;;;;;;;21.03;30.49;96269.38;5087914;28;20079;-65
2021/03/26 13:58:39;;;;;;;4.82;4.32;;;;;;;21.05;30.14;96269.91;5070855;28;20339;-67
2021/03/26 14:01:12;;;;;;;5.50;4.95;;;;;;;20.99;30.15;96265.59;5087955;28;20090;-67
2021/03/26 14:03:49;;;;;;;5.80;4.30;;;;;;;21.00;30.43;96265.31;5087212;28;20052;-64
2021/03/26 14:06:29;;;;;;;5.25;4.75;;;;;;;20.97;30.33;96268.59;5070787;28;20796;-66
2021/03/26 14:09:20;;;;;;;5.80;5.20;;;;;;;20.97;30.61;96267.81;5070987;28;20058;-65
2021/03/26 14:11:52;;;;;;;5.20;4.70;;;;;;;20.99;30.65;96262.88;5076743;28;20388;-65
2021/03/26 14:14:25;;;;;;;6.13;5.05;;;;;;;20.98;30.34;96261.28;5086875;28;20054;-66
2021/03/26 14:16:53;;;;;;;5.10;4.63;;;;;;;20.97;30.29;96260.44;5089351;28;20213;-66
2021/03/26 14:19:24;;;;;;;5.50;4.80;;;;;;;20.96;30.51;96258.84;5070193;28;20580;-67
2021/03/26 14:21:55;;;;;;;4.70;4.30;;;;;;;20.98;30.44;96264.00;5086748;28;20051;-65
2021/03/26 14:24:50;;;;;;;6.25;4.68;;;;;;;20.97;30.64;96263.16;5086735;28;20051;-65
2021/03/26 14:27:53;;;;;;;4.63;4.22;;;;;;;20.95;30.64;96257.19;5065548;28;20058;-65
2021/03/26 14:30:34;;;;;;;4.28;3.88;;;;;;;20.97;30.39;96267.81;5088163;28;20106;-65
2021/03/26 14:33:08;;;;;;;5.47;4.93;;;;;;;20.98;30.67;96269.44;5086602;28;20052;-65
2021/03/26 14:35:38;;;;;;;5.20;4.80;;;;;;;20.98;30.54;96261.28;5069466;28;20382;-65
2021/03/26 14:38:22;;;;;;;4.80;4.40;;;;;;;20.97;30.49;96262.34;5086258;28;20568;-66
2021/03/26 14:40:48;;;;;;;4.73;4.30;;;;;;;20.96;30.65;96255.31;5086941;28;20572;-67
2021/03/26 14:43:14;;;;;;;4.88;4.47;;;;;;;20.92;30.51;96260.50;5069786;28;20047;-69
2021/03/26 14:45:43;;;;;;;5.50;4.68;;;;;;;20.91;30.51;96258.88;5087548;28;20427;-66
2021/03/26 14:48:17;;;;;;;4.68;4.28;;;;;;;20.92;30.62;96244.16;5087179;28;20078;-66
2021/03/26 14:50:47;;;;;;;5.18;4.78;;;;;;;20.92;30.63;96243.38;5087144;28;20044;-65
2021/03/26 14:53:18;;;;;;;6.03;5.00;;;;;;;20.91;30.72;96241.72;5091867;28;20134;-69
2021/03/26 14:55:52;;;;;;;5.47;4.97;;;;;;;20.89;31.04;96242.00;5089841;28;20049;-67
2021/03/26 14:58:18;;;;;;;5.72;4.75;;;;;;;20.91;30.67;96247.19;5089247;28;20056;-66
2021/03/26 15:01:02;;;;;;;5.05;4.65;;;;;;;20.92;30.87;96248.81;5107628;28;20047;-69
2021/03/26 15:03:35;;;;;;;5.28;4.78;;;;;;;20.90;30.92;96248.28;5107972;28;20510;-67
2021/03/26 15:06:18;;;;;;;4.85;4.45;;;;;;;20.87;30.85;96252.38;5106305;28;20067;-66
2021/03/26 15:08:59;;;;;;;5.03;4.53;;;;;;;20.87;30.81;96252.38;5105363;28;20473;-66
2021/03/26 15:11:33;;;;;;;4.53;4.13;;;;;;;20.88;31.04;96253.22;5107422;28;20096;-68
2021/03/26 15:14:14;;;;;;;4.90;4.50;;;;;;;20.86;30.96;96253.50;5106083;28;20138;-68
2021/03/26 15:18:00;;;;;;;5.55;4.43;;;;;;;20.85;30.81;96254.56;5103922;27;20376;-69
2021/03/26 15:20:31;;;;;;;5.30;4.85;;;;;;;20.84;30.90;96248.31;5103646;28;20051;-68
2021/03/26 15:23:17;;;;;;;5.50;5.00;;;;;;;20.83;31.30;96244.00;5086346;28;20550;-69
2021/03/26 15:26:08;;;;;;;6.03;5.45;;;;;;;20.80;31.08;96238.31;5103072;28;20051;-67
2021/03/26 15:28:45;;;;;;;6.63;4.93;;;;;;;20.75;31.28;96241.91;5102061;28;20328;-68
2021/03/26 15:31:35;;;;;;;5.05;4.55;;;;;;;20.80;31.30;96238.31;5103145;28;20054;-66
2021/03/26 15:34:13;;;;;;;4.85;4.43;;;;;;;20.78;31.41;96235.88;5102425;28;20059;-66
2021/03/26 15:36:50;;;;;;;5.47;4.97;;;;;;;20.76;31.64;96234.53;5102363;28;20143;-67
2021/03/26 15:39:37;;;;;;;4.93;4.53;;;;;;;20.74;31.59;96237.53;5085419;28;20052;-66
2021/03/26 15:42:35;;;;;;;6.07;5.47;;;;;;;20.73;31.39;96235.13;5103122;28;20052;-66
2021/03/26 15:45:09;;;;;;;5.97;5.40;;;;;;;20.75;31.57;96235.63;5103311;28;20181;-67
2021/03/26 15:47:41;;;;;;;5.25;4.75;;;;;;;20.71;31.60;96227.25;5101967;28;20055;-67
2021/03/26 15:50:23;;;;;;;5.75;4.97;;;;;;;20.68;31.44;96221.56;5085113;28;20049;-67
2021/03/26 15:53:26;;;;;;;6.05;5.47;;;;;;;20.67;31.39;96223.47;5087018;28;20058;-67
2021/03/26 15:56:36;;;;;;;5.07;4.72;;;;;;;20.64;31.68;96227.59;5122821;28;20050;-67
2021/03/26 15:59:29;;;;;;;5.28;4.78;;;;;;;20.62;31.48;96224.34;5107361;27;20081;-67
2021/03/26 16:02:16;;;;;;;4.75;4.35;;;;;;;20.59;31.91;96211.31;5075551;27;20047;-66
2021/03/26 16:04:47;;;;;;;5.15;4.75;;;;;;;20.60;31.85;96209.38;5124109;27;20051;-67
2021/03/26 16:07:35;;;;;;;5.07;4.63;;;;;;;20.59;31.84;96224.91;5112388;28;20044;-67
2021/03/26 16:10:03;;;;;;;5.13;4.63;;;;;;;20.55;31.76;96223.03;5090357;28;20047;-62
2021/03/26 16:12:50;;;;;;;5.18;4.72;;;;;;;20.54;31.69;96227.66;5101331;28;20060;-64
2021/03/26 16:15:31;;;;;;;5.43;4.97;;;;;;;20.54;32.25;96229.56;5099060;28;20064;-64
2021/03/26 16:18:18;;;;;;;5.05;4.65;;;;;;;20.50;31.92;96232.06;5086795;28;20536;-65
2021/03/26 16:21:21;;;;;;;5.75;4.63;;;;;;;20.48;32.28;96225.25;5102508;28;20051;-68
2021/03/26 16:23:55;;;;;;;5.55;4.90;;;;;;;20.53;32.05;96230.66;5102496;28;20050;-65
2021/03/26 16:26:40;;;;;;;6.93;4.85;;;;;;;20.51;32.42;96227.41;5102963;28;20584;-62
2021/03/26 16:29:44;;;;;;;4.72;4.32;;;;;;;20.43;32.27;96235.13;5088253;28;20062;-68
2021/03/26 16:32:24;;;;;;;6.97;4.80;;;;;;;20.40;32.18;96237.59;5081086;28;20052;-62
2021/03/26 16:34:56;;;;;;;5.57;4.68;;;;;;;20.40;32.28;96245.75;5071344;28;20051;-60
2021/03/26 16:37:57;;;;;;;5.63;5.13;;;;;;;20.38;32.27;96247.94;5088685;28;20062;-65
2021/03/26 16:40:44;;;;;;;5.38;4.47;;;;;;;20.38;32.40;96245.22;5069569;28;20446;-62
2021/03/26 16:43:38;;;;;;;5.13;4.68;;;;;;;20.36;32.47;96245.50;5089295;28;20060;-61
2021/03/26 16:46:26;;;;;;;4.68;4.00;;;;;;;20.33;32.34;96245.25;5087990;28;20079;-62
2021/03/26 16:49:12;;;;;;;6.50;4.57;;;;;;;20.33;32.34;96240.66;5075961;28;20048;-62
2021/03/26 16:51:46;;;;;;;6.13;3.88;;;;;;;20.30;32.59;96248.56;5084288;28;20056;-64
2021/03/26 16:54:41;;;;;;;5.47;4.73;;;;;;;20.27;33.18;96244.50;5082465;28;20056;-60
2021/03/26 16:57:44;;;;;;;6.57;5.28;;;;;;;20.22;33.40;96245.34;5065142;28;20056;-61
2021/03/26 17:00:30;;;;;;;5.30;4.90;;;;;;;20.23;33.77;96252.41;5068832;28;20106;-63
2021/03/26 17:03:27;;;;;;;6.05;5.05;;;;;;;20.25;33.42;96257.56;5084727;28;20173;-63
2021/03/26 17:06:24;;;;;;;6.43;5.03;;;;;;;20.19;33.73;96239.66;5069722;28;20059;-68
2021/03/26 17:09:00;;;;;;;5.00;4.60;;;;;;;20.18;33.99;96236.16;5088100;28;20052;-66
2021/03/26 17:11:53;;;;;;;6.13;4.85;;;;;;;20.16;33.90;96223.91;5070583;28;20047;-66
2021/03/26 17:14:40;;;;;;;5.45;4.70;;;;;;;20.16;34.00;96238.34;5087788;28;20070;-66
2021/03/26 17:17:27;;;;;;;5.00;4.55;;;;;;;20.10;33.75;96244.91;5086911;28;20061;-64
2021/03/26 17:20:08;;;;;;;5.28;4.15;;;;;;;20.09;33.89;96235.13;5087003;28;20052;-61
2021/03/26 17:23:21;;;;;;;5.50;4.75;;;;;;;20.09;33.95;96240.56;5086283;28;20712;-66
2021/03/26 17:25:56;;;;;;;7.88;4.72;;;;;;;20.09;33.94;96239.75;5069056;28;20055;-65
2021/03/26 17:28:49;;;;;;;5.38;4.75;;;;;;;20.05;33.82;96242.22;5086549;28;20063;-60
2021/03/26 17:31:36;;;;;;;6.20;4.72;;;;;;;20.02;33.94;96248.25;5068878;28;20044;-66
2021/03/26 17:34:08;;;;;;;6.28;4.97;;;;;;;19.99;34.20;96246.88;5087339;28;20185;-60
2021/03/26 17:36:52;;;;;;;7.88;5.38;;;;;;;19.98;33.81;96245.25;5084553;28;20150;-63
2021/03/26 17:39:36;;;;;;;7.00;4.68;;;;;;;19.94;34.30;96251.56;5069802;28;20077;-66
2021/03/26 17:42:08;;;;;;;9.40;5.15;;;;;;;19.94;34.65;96236.06;5084668;28;20048;-67
2021/03/26 17:45:11;;;;;;;6.47;5.72;;;;;;;19.94;34.97;96230.63;5083029;28;20476;-61
2021/03/26 17:47:49;;;;;;;8.82;4.90;;;;;;;19.94;35.01;96225.19;5083358;28;20071;-60
2021/03/26 17:50:53;;;;;;;10.07;4.75;;;;;;;19.94;34.97;96219.75;5077756;28;20044;-65
2021/03/26 17:53:48;;;;;;;8.05;4.90;;;;;;;19.95;35.13;96220.53;5039952;28;20066;-61
2021/03/26 17:56:48;;;;;;;8.80;5.03;;;;;;;19.95;34.71;96237.66;5086501;28;20464;-68
2021/03/26 17:59:51;;;;;;;7.68;4.72;;;;;;;19.93;35.02;96233.59;5075548;28;20099;-62
2021/03/26 18:02:41;;;;;;;8.07;4.90;;;;;;;19.92;35.11;96245.59;5073853;28;20148;-62
2021/03/26 18:05:18;;;;;;;6.63;4.72;;;;;;;19.92;34.92;96251.03;5067682;28;20052;-61
2021/03/26 18:08:02;;;;;;;8.05;4.75;;;;;;;19.90;35.05;96270.31;5087291;28;20071;-67
2021/03/26 18:10:35;;;;;;;5.63;4.33;;;;;;;19.87;35.26;96302.69;5085552;28;20881;-64
2021/03/26 18:13:28;;;;;;;5.45;4.95;;;;;;;19.88;35.28;96323.34;5083606;28;20396;-62
2021/03/26 18:18:13;;;;;;;7.55;6.30;;;;;;;19.87;34.91;96338.84;5063093;28;20418;-67
2021/03/26 18:21:00;;;;;;;7.88;6.75;;;;;;;19.86;35.16;96330.97;5064187;28;20048;-64
2021/03/26 18:23:50;;;;;;;10.10;7.20;;;;;;;19.84;35.36;96337.47;5045099;28;20147;-65
2021/03/26 18:26:39;;;;;;;13.80;10.05;;;;;;;19.85;35.19;96332.88;5060548;28;20051;-65
2021/03/26 18:29:29;;;;;;;11.95;8.70;;;;;;;19.87;35.90;96340.75;5062702;28;20396;-66
2021/03/26 18:32:14;;;;;;;9.75;7.72;;;;;;;19.84;35.90;96337.47;5062353;28;20132;-66
2021/03/26 18:35:10;;;;;;;8.47;7.00;;;;;;;19.87;35.42;96338.84;5063105;28;20557;-67
2021/03/26 18:38:11;;;;;;;9.98;7.05;;;;;;;19.88;35.67;96345.09;5062043;28;20049;-71
2021/03/26 18:40:44;;;;;;;11.05;6.97;;;;;;;19.88;35.66;96343.19;5039469;28;20056;-63
2021/03/26 18:43:26;;;;;;;7.53;6.75;;;;;;;19.88;35.60;96340.47;5061217;28;20045;-66
2021/03/26 18:46:10;;;;;;;7.47;6.68;;;;;;;19.89;35.70;96349.44;5041754;28;20060;-64
2021/03/26 18:48:54;;;;;;;8.30;7.50;;;;;;;19.91;35.71;96356.22;5042738;28;20049;-64
2021/03/26 18:51:41;;;;;;;9.57;7.13;;;;;;;19.91;35.64;96356.22;5042345;28;20045;-67
2021/03/26 18:54:25;;;;;;;7.70;6.55;;;;;;;19.91;35.69;96361.66;5066456;28;20090;-67
2021/03/26 18:57:11;;;;;;;7.35;6.55;;;;;;;19.91;36.05;96367.09;5060858;28;20144;-65
2021/03/26 18:59:55;;;;;;;7.03;6.35;;;;;;;19.92;35.97;96370.63;5060349;28;20638;-62
2021/03/26 19:02:29;;;;;;;6.90;6.20;;;;;;;19.94;36.00;96376.59;5061959;28;20057;-65
2021/03/26 19:05:15;;;;;;;7.80;5.55;;;;;;;19.94;35.51;96382.84;5062125;28;20114;-63
2021/03/26 19:07:41;;;;;;;8.05;6.65;;;;;;;19.94;36.11;96377.41;5044111;28;20046;-65
2021/03/26 19:10:20;;;;;;;7.15;6.40;;;;;;;19.96;35.94;96388.00;5024174;28;20118;-64
2021/03/26 19:13:07;;;;;;;7.35;6.20;;;;;;;19.97;35.96;96386.91;5025053;28;20425;-68
2021/03/26 19:15:55;;;;;;;6.97;5.95;;;;;;;19.97;35.73;96379.56;5041723;28;20049;-65
2021/03/26 19:18:30;;;;;;;7.43;5.70;;;;;;;19.96;35.80;96377.94;5040582;28;20061;-62
2021/03/26 19:21:42;;;;;;;6.40;5.70;;;;;;;19.99;35.74;96382.81;5045221;28;20060;-63
2021/03/26 19:24:32;;;;;;;7.00;5.55;;;;;;;20.00;35.66;96376.28;4968774;28;20054;-61
2021/03/26 19:27:11;;;;;;;5.35;4.82;;;;;;;20.02;35.31;96386.91;5038821;28;20459;-62
2021/03/26 19:29:55;;;;;;;5.75;5.20;;;;;;;20.02;35.56;96384.97;5042672;28;20179;-62
2021/03/26 19:32:35;;;;;;;8.93;5.45;;;;;;;20.03;35.64;96397.47;5046641;28;20061;-63
2021/03/26 19:35:30;;;;;;;8.65;5.43;;;;;;;20.07;35.64;96403.16;5046516;28;20048;-59
2021/03/26 19:38:22;;;;;;;6.40;5.63;;;;;;;20.06;35.27;96412.44;5025535;28;20147;-59
2021/03/26 19:40:55;;;;;;;5.90;4.53;;;;;;;20.07;35.04;96424.91;5044361;28;20099;-61
2021/03/26 19:43:23;;;;;;;6.47;5.10;;;;;;;20.06;35.15;96420.59;5043192;28;20117;-61
2021/03/26 19:46:18;;;;;;;8.35;4.93;;;;;;;20.08;35.14;96426.56;5045750;28;20080;-60
2021/03/26 19:49:05;;;;;;;7.78;5.25;;;;;;;20.10;35.03;96440.69;5046325;28;20067;-61
2021/03/26 19:51:37;;;;;;;5.85;4.53;;;;;;;20.11;35.07;96436.88;5047035;28;20508;-68
2021/03/26 19:54:31;;;;;;;4.97;4.47;;;;;;;20.08;35.25;96432.00;5022213;28;20064;-60
2021/03/26 19:57:37;;;;;;;5.40;4.90;;;;;;;20.13;34.86;96444.75;5038957;28;20044;-68
2021/03/26 20:00:23;;;;;;;4.63;4.22;;;;;;;20.14;34.83;96440.91;4996494;28;20065;-69
2021/03/26 20:03:21;;;;;;;4.75;4.10;;;;;;;20.15;35.06;96453.44;5003397;28;20057;-69
2021/03/26 20:05:50;;;;;;;4.10;3.70;;;;;;;20.20;34.87;96450.69;5007860;28;20134;-66
2021/03/26 20:08:41;;;;;;;6.30;4.22;;;;;;;20.25;34.93;96450.69;5008046;28;20093;-69
2021/03/26 20:11:18;;;;;;;5.07;4.00;;;;;;;20.29;35.16;96450.91;5002693;28;20054;-70
2021/03/26 20:14:08;;;;;;;5.00;4.05;;;;;;;20.33;34.83;96460.13;5006439;28;20149;-70
2021/03/26 20:16:46;;;;;;;6.47;3.85;;;;;;;20.38;34.82;96451.97;5006750;28;20256;-70
2021/03/26 20:19:40;;;;;;;5.05;3.83;;;;;;;20.42;35.14;96463.91;5007256;28;20096;-63
2021/03/26 20:22:16;;;;;;;4.15;3.85;;;;;;;20.45;34.91;96458.72;5005587;28;20528;-67
2021/03/26 20:25:19;;;;;;;4.97;3.88;;;;;;;20.49;35.15;96464.41;5012214;28;20050;-70
2021/03/26 20:27:44;;;;;;;4.38;4.03;;;;;;;20.54;35.24;96469.00;5002131;28;20058;-70
2021/03/26 20:30:57;;;;;;;4.65;4.22;;;;;;;20.57;34.90;96473.91;5005036;28;20096;-70
2021/03/26 20:33:58;;;;;;;4.85;3.40;;;;;;;20.61;34.94;96488.59;4986798;28;20402;-69
2021/03/26 20:36:55;;;;;;;3.92;3.53;;;;;;;20.67;34.95;96503.00;4974254;28;20828;-63
2021/03/26 20:39:23;;;;;;;4.93;3.70;;;;;;;20.69;34.55;96484.47;4996823;28;20544;-65
2021/03/26 20:41:58;;;;;;;3.65;3.35;;;;;;;20.74;34.54;96485.25;4972611;28;20626;-60
2021/03/26 20:44:24;;;;;;;;;;;;;;;20.80;34.80;96502.34;4989628;28;20081;-63
2021/03/26 20:47:11;;;;;;;4.30;3.72;;;;;;;20.82;34.46;96502.91;5005843;28;19977;-60
2021/03/26 20:49:38;;;;;;;6.20;4.05;;;;;;;20.88;34.66;96503.69;5005654;28;20081;-62
2021/03/26 20:52:30;;;;;;;4.10;3.65;;;;;;;20.89;34.27;96514.28;5005080;28;20057;-63
2021/03/26 20:55:11;;;;;;;3.83;3.38;;;;;;;20.94;34.74;96514.25;5002600;28;20046;-69
2021/03/26 20:57:47;;;;;;;3.63;3.33;;;;;;;20.96;34.41;96511.25;5004508;28;20057;-60
2021/03/26 21:00:16;;;;;;;5.18;3.17;;;;;;;21.00;34.53;96520.47;4988108;28;20061;-67
2021/03/26 21:02:50;;;;;;;3.20;2.90;;;;;;;21.03;34.17;96512.53;5007324;28;20124;-62
2021/03/26 21:05:19;;;;;;;4.57;3.78;;;;;;;21.06;34.31;96508.44;5006366;28;20510;-68
2021/03/26 21:08:03;;;;;;;5.00;3.20;;;;;;;21.09;33.92;96504.34;5006600;28;20517;-63
2021/03/26 21:10:35;;;;;;;3.10;2.90;;;;;;;21.13;33.87;96511.66;5004926;28;20062;-68
2021/03/26 21:13:21;;;;;;;3.25;2.95;;;;;;;21.18;34.00;96513.53;4970205;28;20145;-62
2021/03/26 21:18:50;;;;;;;4.55;3.30;;;;;;;21.21;33.67;96521.94;5103363;27;20387;-62
2021/03/26 21:21:16;;;;;;;3.78;3.33;;;;;;;21.26;33.98;96521.09;5103391;28;20044;-67
2021/03/26 21:23:54;;;;;;;3.38;3.13;;;;;;;21.29;33.63;96527.88;5086270;28;20079;-59
2021/03/26 21:26:21;;;;;;;2.40;2.30;;;;;;;21.28;33.68;96529.78;5086084;28;20090;-60
2021/03/26 21:29:01;;;;;;;3.03;2.80;;;;;;;21.34;33.79;96533.31;5085663;28;20130;-61
2021/03/26 21:31:57;;;;;;;4.20;3.25;;;;;;;21.36;33.38;96539.28;5102524;28;20055;-60
2021/03/26 21:34:47;;;;;;;3.30;3.05;;;;;;;21.38;33.41;96534.34;5087617;28;20096;-61
2021/03/26 21:37:40;;;;;;;3.03;2.83;;;;;;;21.43;33.16;96537.06;5102540;28;20074;-62
2021/03/26 21:40:08;;;;;;;3.67;3.00;;;;;;;21.46;33.10;96547.41;5101230;28;20048;-64
2021/03/26 21:42:41;;;;;;;3.17;2.90;;;;;;;21.48;32.87;96560.72;5101758;28;20467;-62
2021/03/26 21:45:36;;;;;;;2.88;2.67;;;;;;;21.49;33.07;96548.75;5064836;28;20055;-62
2021/03/26 21:48:22;;;;;;;3.67;2.90;;;;;;;21.54;32.95;96554.13;5079437;28;20051;-62
2021/03/26 21:51:18;;;;;;;3.38;3.10;;;;;;;21.57;32.85;96556.31;5081913;28;20507;-66
2021/03/26 21:54:01;;;;;;;2.97;2.78;;;;;;;21.59;32.99;96554.91;5099633;28;20051;-69
2021/03/26 21:57:02;;;;;;;3.03;2.83;;;;;;;21.63;32.84;96555.97;5123279;27;20047;-65
2021/03/26 21:59:52;;;;;;;2.97;2.78;;;;;;;21.65;32.58;96563.88;5122478;28;20192;-65
2021/03/26 22:02:53;;;;;;;2.72;2.50;;;;;;;21.70;32.62;96572.00;5121120;28;20590;-67
2021/03/26 22:05:32;;;;;;;5.75;2.92;;;;;;;21.72;32.84;96568.97;5123283;28;20051;-64
2021/03/26 22:08:16;;;;;;;3.08;2.88;;;;;;;21.75;32.37;96580.13;5105109;28;20046;-65
2021/03/26 22:11:04;;;;;;;2.90;2.70;;;;;;;21.78;32.35;96578.75;5123415;28;20054;-63
2021/03/26 22:13:40;;;;;;;2.67;2.47;;;;;;;21.80;32.29;96590.97;5099288;28;20055;-61
2021/03/26 22:16:18;;;;;;;2.55;2.35;;;;;;;21.84;32.26;96581.13;5081205;28;20459;-63
2021/03/26 22:18:49;;;;;;;2.85;2.65;;;;;;;21.88;32.46;96591.44;5091325;28;20043;-65
2021/03/26 22:21:33;;;;;;;2.65;2.35;;;;;;;21.90;32.09;96584.63;5102556;28;20071;-64
2021/03/26 22:24:19;;;;;;;2.28;2.17;;;;;;;21.92;32.28;96587.06;5082137;28;20059;-65
2021/03/26 22:26:45;;;;;;;2.65;2.45;;;;;;;21.94;32.18;96588.41;5081893;28;20060;-68
2021/03/26 22:29:34;;;;;;;2.17;2.08;;;;;;;21.96;32.43;96577.19;5074134;28;20131;-62
2021/03/26 22:32:08;;;;;;;2.75;2.45;;;;;;;21.99;32.29;96582.09;5051421;28;20052;-60
2021/03/26 22:34:34;;;;;;;2.60;2.40;;;;;;;22.00;32.22;96584.53;5068537;28;20048;-61
2021/03/26 22:37:13;;;;;;;2.70;2.50;;;;;;;22.02;32.23;96579.59;5067809;28;20098;-59
2021/03/26 22:39:44;;;;;;;2.85;2.65;;;;;;;22.04;32.05;96579.28;5051171;28;20068;-59
2021/03/26 22:42:13;;;;;;;2.30;2.20;;;;;;;22.06;31.89;96580.63;5051528;28;20056;-60
2021/03/26 22:45:08;;;;;;;2.60;2.13;;;;;;;22.08;32.05;96574.88;5066324;28;20683;-61
2021/03/26 22:47:41;;;;;;;;;;;;;;;22.10;31.96;96578.16;5052182;28;20627;-61
2021/03/26 22:50:15;;;;;;;5.45;4.95;;;;;;;22.13;31.96;96593.94;5066465;28;20367;-59
2021/03/26 22:52:53;;;;;;;;;;;;;;;22.14;32.05;96590.09;5069540;28;20105;-59
2021/03/26 22:55:28;;;;;;;8.60;7.35;;;;;;;22.14;31.74;96581.91;5084344;28;19920;-61
2021/03/26 22:57:59;;;;;;;9.70;8.80;;;;;;;22.18;32.01;96591.16;5084083;28;20051;-61
2021/03/26 23:00:41;;;;;;;9.30;8.35;;;;;;;22.20;32.00;96594.41;5070378;28;20040;-63
2021/03/26 23:03:15;;;;;;;10.20;9.30;;;;;;;22.22;32.05;96596.84;5082838;28;20044;-59
2021/03/26 23:05:42;;;;;;;9.13;8.20;;;;;;;22.23;31.82;96607.53;5057734;28;20094;-63
2021/03/26 23:08:12;;;;;;;9.30;8.50;;;;;;;22.25;31.70;96608.03;5049844;28;20083;-60
2021/03/26 23:10:51;;;;;;;8.88;8.07;;;;;;;22.28;31.61;96609.38;5065908;28;20094;-63
2021/03/26 23:13:22;;;;;;;8.93;8.02;;;;;;;22.30;31.69;96615.34;5049847;28;20576;-58
2021/03/26 23:16:12;;;;;;;8.55;7.85;;;;;;;22.30;31.81;96618.09;5121311;27;20406;-58
2021/03/26 23:18:51;;;;;;;8.35;7.55;;;;;;;22.33;31.84;96612.03;5084564;28;20047;-69
2021/03/26 23:21:16;;;;;;;9.88;7.65;;;;;;;22.35;31.68;96607.09;5102122;28;20051;-68
2021/03/26 23:23:47;;;;;;;8.00;7.30;;;;;;;22.37;31.52;96610.34;5104159;28;20052;-68